Bei Facebook empfehlenBei Twitter postenGoogle plusPinterest

Das Wetter im Erzgebirge am 17.08.2017

Wetter und Klima am 17.08.2017 Holzhau im Erzgebirge (630m ü.NN)
Letzte gemessene Temperatur und Uhrzeit der Messung23:45:00 Uhr16.40 °C
Temperatur (Maximum / Höchstwert) und Uhrzeit der Messung15:45:00 Uhr24.80 °C
Temperatur (Minimum / Tiefstwert) und Uhrzeit der Messung05:45:0010.10 °C
Errechneter Absolutwert der Temperaturschwankungen zwischen Tmin und Tmax des Tages14.70 K
Errechnete Tagesmitteltemperatur17.60833 °C
Gesamt - Niederschlag des Tages (in flüssiger Form)0.00 Liter / m²
Luftdruck (Maximum / Höchstwert) und Zeitpunkt der Messung00:30:00 Uhr1018.80 hPa
Luftdruck (Minimum / Tiefstwert) und Zeitpunkt der Messung23:30:00 Uhr1014.50 hPa
Errechneter Absolutwert der Luftdruckschwankungen des Tages4.30 hPa
Höchste gemessene Windgeschwindigkeit und Uhrzeit der Messung10:45:00 Uhr660.96 km/h
Errechnete Windhäufigkeit in Relation zu den Messwerten des Tages23.95833 %
Niedrigste Windkühle (Windchill) und Zeitpunkt der Messung04:30:00 Uhr9.10 °C
Taupunkt (Maximum / Höchstwert) und Uhrzeit der Messung18:30:00 Uhr16.70 °C
Taupunkt (Minimum / Tiefstwert) und Uhrzeit der Messung03:45:009.00 °C
Anzahl der automatisch eingelesenen Messwerte 96

Detaillierte Wetter- und Klima- Messwerte für den 17.08.2017 in Holzhau im Erzgebirge (630m ü.NN)
ZeitTemperaturLuftdruckRel. LuftfeuchteWindWindrichtungWindchillTaupunktNiederschlag l/m²
23:45:0016.40 °C1014.70 hPa88.00 %14.40 °C 
23:30:0016.40 °C1014.50 hPa88.00 %14.40 °C 
23:15:0016.40 °C1014.60 hPa87.00 %14.20 °C 
23:00:0016.40 °C1014.70 hPa86.00 %14.10 °C 
22:45:0016.50 °C1014.80 hPa85.00 %14.00 °C 
22:30:0016.90 °C1014.80 hPa84.00 %14.20 °C 
22:15:0017.00 °C1014.50 hPa84.00 %14.30 °C 
22:00:0017.10 °C1014.70 hPa84.00 %14.40 °C 
21:45:0017.20 °C1014.80 hPa83.00 %14.30 °C 
21:30:0017.30 °C1014.80 hPa82.00 %14.20 °C 
21:15:0017.60 °C1014.90 hPa81.00 %14.30 °C 
21:00:0017.90 °C1014.80 hPa80.00 %14.40 °C 
20:45:0018.40 °C1014.90 hPa79.00 %14.70 °C 
20:30:0018.90 °C1014.90 hPa77.00 %14.80 °C 
20:15:0019.80 °C1014.70 hPa76.00 %15.40 °C 
20:00:0020.50 °C1014.80 hPa74.00 %15.70 °C 
19:45:0020.90 °C1014.70 hPa72.00 %15.70 °C 
19:30:0021.50 °C1014.70 hPa70.00 %15.80 °C 
19:15:0022.30 °C1014.80 hPa68.00 %16.10 °C 
19:00:0022.90 °C1014.70 hPa67.00 %16.40 °C 
18:45:0023.00 °C1014.80 hPa67.00 %16.50 °C 
18:30:0022.90 °C1014.80 hPa68.00 %16.70 °C 
18:15:0022.40 °C1014.80 hPa68.00 %16.20 °C 
18:00:0022.90 °C1014.90 hPa65.00 %16.00 °C 
17:45:0023.50 °C1014.80 hPa64.00 %6.48 km/hOSO23.50 °C16.30 °C 
17:30:0023.60 °C1014.80 hPa65.00 %16.60 °C 
17:15:0023.30 °C1015.00 hPa63.00 %15.90 °C 
17:00:0023.10 °C1015.30 hPa62.00 %15.40 °C 
16:45:0023.80 °C1015.00 hPa59.00 %15.30 °C 
16:30:0024.50 °C1015.20 hPa59.00 %16.00 °C 
16:15:0024.50 °C1015.20 hPa58.00 %20.88 km/hOSO26.20 °C15.70 °C 
16:00:0024.40 °C1015.50 hPa58.00 %30.96 km/hSW25.90 °C15.60 °C 
15:45:0024.80 °C1015.70 hPa56.00 %15.40 °C 
15:30:0024.80 °C1015.70 hPa57.00 %7.92 km/hSW24.80 °C15.70 °C 
15:15:0024.40 °C1015.60 hPa58.00 %15.60 °C 
15:00:0024.30 °C1015.60 hPa58.00 %19.44 km/hSO25.90 °C15.50 °C 
14:45:0024.10 °C1015.70 hPa59.00 %18.00 km/hSO25.70 °C15.60 °C 
14:30:0023.90 °C1015.80 hPa58.00 %15.10 °C 
14:15:0023.80 °C1016.00 hPa58.00 %7.92 km/hSSW23.80 °C15.00 °C 
14:00:0023.50 °C1016.00 hPa58.00 %14.80 °C 
13:45:0023.30 °C1016.20 hPa61.00 %15.40 °C 
13:30:0022.60 °C1016.10 hPa62.00 %2.52 km/hONO22.60 °C15.00 °C 
13:15:0022.20 °C1016.60 hPa62.00 %30.96 km/hSO23.30 °C14.60 °C 
13:00:0023.20 °C1016.80 hPa58.00 %16.92 km/hWSW23.20 °C14.50 °C 
12:45:0023.30 °C1016.90 hPa59.00 %34.92 km/hO24.50 °C14.80 °C 
12:30:0023.30 °C1016.90 hPa60.00 %15.10 °C 
12:15:0023.10 °C1017.00 hPa60.00 %42.84 km/hSSW24.20 °C14.90 °C 
12:00:0023.20 °C1017.20 hPa61.00 %15.48 km/hWSW23.20 °C15.30 °C 
11:45:0023.10 °C1017.30 hPa62.00 %51.84 km/hS24.10 °C15.40 °C 
11:30:0022.20 °C1017.40 hPa64.00 %18.00 km/hO23.60 °C15.10 °C 
11:15:0021.60 °C1017.20 hPa66.00 %15.00 °C 
11:00:0022.00 °C1017.50 hPa65.00 %15.10 °C 
10:45:0021.80 °C1017.30 hPa67.00 %660.96 km/hSSO20.40 °C15.40 °C 
10:30:0021.90 °C1017.30 hPa67.00 %15.48 km/hSO21.90 °C15.50 °C 
10:15:0021.60 °C1017.10 hPa69.00 %2.52 km/hNO21.60 °C15.70 °C 
10:00:0020.90 °C1017.30 hPa72.00 %15.70 °C 
09:45:0020.20 °C1017.00 hPa75.00 %9.00 km/hW20.20 °C15.60 °C 
09:30:0019.80 °C1016.90 hPa77.00 %15.70 °C 
09:15:0019.30 °C1017.10 hPa81.00 %16.00 °C 
09:00:0018.50 °C1017.00 hPa85.00 %15.90 °C 
08:45:0017.80 °C1017.20 hPa88.00 %15.80 °C 
08:30:0016.90 °C1017.30 hPa91.00 %15.40 °C 
08:15:0015.70 °C1017.40 hPa93.00 %14.60 °C 
08:00:0014.30 °C1017.40 hPa94.00 %13.30 °C 
07:45:0013.00 °C1017.50 hPa95.00 %12.20 °C 
07:30:0012.10 °C1017.40 hPa95.00 %11.30 °C 
07:15:0011.40 °C1017.40 hPa95.00 %10.60 °C 
07:00:0011.10 °C1017.40 hPa95.00 %10.30 °C 
06:45:0010.80 °C1017.50 hPa95.00 %10.00 °C 
06:30:0010.30 °C1017.60 hPa95.00 %9.50 °C 
06:15:0010.60 °C1017.50 hPa95.00 %9.80 °C 
06:00:0010.40 °C1017.50 hPa95.00 %9.60 °C 
05:45:0010.10 °C1017.50 hPa94.00 %9.00 km/hSO10.10 °C9.20 °C 
05:30:0010.30 °C1017.60 hPa94.00 %9.40 °C 
05:15:0010.20 °C1017.50 hPa94.00 %9.30 °C 
05:00:0010.40 °C1017.70 hPa94.00 %9.50 °C 
04:45:0010.40 °C1017.60 hPa94.00 %10.44 km/hOSO10.40 °C9.50 °C 
04:30:0010.40 °C1017.60 hPa94.00 %36.36 km/hOSO9.10 °C9.50 °C 
04:15:0010.50 °C1017.70 hPa94.00 %9.60 °C 
04:00:0010.40 °C1017.90 hPa94.00 %9.50 °C 
03:45:0010.10 °C1017.80 hPa93.00 %9.00 °C 
03:30:0010.40 °C1017.90 hPa93.00 %9.30 °C 
03:15:0010.60 °C1018.10 hPa93.00 %9.50 °C 
03:00:0010.80 °C1017.90 hPa94.00 %19.44 km/hOSO10.50 °C9.90 °C 
02:45:0010.80 °C1018.10 hPa93.00 %9.70 °C 
02:30:0010.70 °C1018.10 hPa93.00 %9.60 °C 
02:15:0010.80 °C1018.00 hPa93.00 %9.70 °C 
02:00:0010.80 °C1018.40 hPa93.00 %9.70 °C 
01:45:0010.80 °C1018.40 hPa93.00 %9.70 °C 
01:30:0010.80 °C1018.40 hPa93.00 %9.70 °C 
01:15:0010.70 °C1018.50 hPa93.00 %9.60 °C 
01:00:0010.60 °C1018.70 hPa93.00 %9.50 °C 
00:45:0010.90 °C1018.60 hPa93.00 %9.80 °C 
00:30:0011.10 °C1018.80 hPa93.00 %10.00 °C 
00:15:0011.20 °C1018.70 hPa92.00 %9.90 °C 
00:00:0011.30 °C1018.80 hPa92.00 %10.00 °C 

Permanenter Link zu dieser Seite: Wetter im Erzgebirge am 17.08.2017
Performance-Info: Die Erstellung der Seite / Statistik(en) / Tabelle(n) erforderte 5 Datenbankserver-Abfrage(n) und dauerte 101 Millisekunden. (Dieser Messwert ist von der Gesamt-Auslastung des Servers abhängig.)
Erzgebirge - Wetter | Erzgebirge - Wetter (Mobilgeräte) | Komplette Klimadatenbank